Time;durP1;ratioP1;P1;durP2;ratioP2;P2;SDS_P1;SDS_P2;PMS_P1;PMS_P2;Temp;Humidity;BMP_temperature;BMP_pressure;BME280_temperature;BME280_humidity;BME280_pressure;Samples;Min_cycle;Max_cycle;Signal;HPM_P1;HPM_P2
2022/09/24 00:00:43;;;;;;;;;;;;;;;17.60;57.15;101052.47;5016466;28;1143;-45
2022/09/24 00:03:08;;;;;;;;;;;;;;;16.76;57.52;101049.75;5015881;28;1120;-45
2022/09/24 00:05:38;;;;;;;;;;;;;;;16.08;60.75;101049.66;5016121;28;882;-49
2022/09/24 00:08:05;;;;;;;;;;;;;;;18.93;53.83;101045.13;5016546;28;1101;-48
2022/09/24 00:10:30;;;;;;;;;;;;;;;14.88;61.52;101037.78;4998345;28;1108;-45
2022/09/24 00:12:56;;;;;;;;;;;;;;;17.76;57.00;101036.78;5001682;28;1971;-47
2022/09/24 00:15:21;;;;;;;;;;;;;;;17.53;55.87;101045.59;5020504;28;1215;-44
2022/09/24 00:17:46;;;;;;;;;;;;;;;15.39;60.79;101041.09;5020132;28;895;-44
2022/09/24 00:20:12;;;;;;;;;;;;;;;18.54;54.62;101036.72;5020199;28;1131;-46
2022/09/24 00:22:37;;;;;;;;;;;;;;;15.15;60.73;101040.56;5010821;28;1242;-47
2022/09/24 00:27:47;;;;;;;;;;;;;;;17.65;55.63;101032.41;5020270;28;1159;-47
2022/09/24 00:30:12;;;;;;;;;;;;;;;15.78;61.86;101037.34;5019579;28;981;-43
2022/09/24 00:32:38;;;;;;;;;;;;;;;18.89;53.56;101038.53;5019548;28;1918;-46
2022/09/24 00:35:04;;;;;;;;;;;;;;;15.32;60.56;101039.63;5019552;28;1116;-46
2022/09/24 00:37:29;;;;;;;;;;;;;;;17.41;58.02;101038.44;5020003;28;1187;-48
2022/09/24 00:39:55;;;;;;;;;;;;;;;18.63;53.50;101032.25;5019845;28;1175;-49
2022/09/24 00:42:21;;;;;;;;;;;;;;;15.06;61.47;101034.72;5019555;28;1176;-49
2022/09/24 00:44:49;;;;;;;;;;;;;;;17.92;56.32;101042.31;5019555;28;1112;-47
2022/09/24 00:47:15;;;;;;;;;;;;;;;17.90;54.05;101039.00;5002011;28;1072;-47
2022/09/24 00:49:40;;;;;;;;;;;;;;;17.39;52.81;101037.03;5019756;28;1119;-47
2022/09/24 00:52:05;;;;;;;;;;;;;;;18.73;53.50;101032.25;5019913;28;1967;-48
2022/09/24 00:54:31;;;;;;;;;;;;;;;15.17;63.78;101024.69;5015465;28;2343;-44
2022/09/24 00:56:56;;;;;;;;;;;;;;;18.81;53.97;101028.88;5001910;28;1101;-46
2022/09/24 00:59:22;;;;;;;;;;;;;;;16.58;57.87;101031.00;4985307;28;1089;-46
2022/09/24 01:01:48;;;;;;;;;;;;;;;16.75;59.72;101031.63;5001795;28;1112;-46
2022/09/24 01:04:13;;;;;;;;;;;;;;;19.33;52.51;101020.34;5019154;28;1163;-46
2022/09/24 01:06:39;;;;;;;;;;;;;;;14.84;61.52;101022.94;5001555;28;1222;-47
2022/09/24 01:09:04;;;;;;;;;;;;;;;18.35;55.41;101022.72;5019693;28;1116;-47
2022/09/24 01:11:53;;;;;;;;;;;;;;;17.33;56.05;101013.41;5018851;28;1156;-46
2022/09/24 01:14:19;;;;;;;;;;;;;;;17.14;59.06;101021.31;5001983;28;1116;-44
2022/09/24 01:16:53;;;;;;;;;;;;;;;19.41;52.07;101014.22;5018850;28;1218;-47
2022/09/24 01:19:37;;;;;;;;;;;;;;;14.84;62.20;101015.59;5019208;28;1108;-47
2022/09/24 01:22:06;;;;;;;;;;;;;;;17.74;56.05;101030.75;5014320;28;1104;-47
2022/09/24 01:24:39;;;;;;;;;;;;;;;17.73;54.34;101018.09;5001015;28;2471;-46
2022/09/24 01:27:06;;;;;;;;;;;;;;;17.30;52.31;101025.75;5001458;28;1208;-43
2022/09/24 01:29:40;;;;;;;;;;;;;;;18.27;53.65;101021.34;5001272;28;1128;-49
2022/09/24 01:32:12;;;;;;;;;;;;;;;17.71;53.25;101023.06;5001921;28;1910;-48
2022/09/24 01:34:48;;;;;;;;;;;;;;;17.48;51.20;101018.09;5018839;28;1168;-44
2022/09/24 01:37:14;;;;;;;;;;;;;;;18.26;52.61;101019.72;5001168;28;1148;-48
2022/09/24 01:39:40;;;;;;;;;;;;;;;17.86;51.85;101035.16;5018851;28;1116;-47
2022/09/24 01:42:05;;;;;;;;;;;;;;;17.77;52.42;101024.69;5001004;28;1136;-42
2022/09/24 01:44:31;;;;;;;;;;;;;;;17.15;55.39;101021.06;5001549;28;1215;-47
2022/09/24 01:46:58;;;;;;;;;;;;;;;16.41;59.01;101029.28;5001354;28;1189;-46
2022/09/24 01:49:23;;;;;;;;;;;;;;;19.08;53.07;101024.94;5018883;28;1092;-43
2022/09/24 01:51:50;;;;;;;;;;;;;;;15.21;61.18;101020.34;5001364;28;1991;-47
2022/09/24 01:54:24;;;;;;;;;;;;;;;18.23;56.05;101026.59;4999938;28;2231;-46
2022/09/24 01:56:52;;;;;;;;;;;;;;;18.05;55.05;101021.69;5001076;28;1120;-46
2022/09/24 01:59:17;;;;;;;;;;;;;;;15.79;59.72;101030.78;5001037;28;1168;-43
2022/09/24 02:01:49;;;;;;;;;;;;;;;18.73;54.44;101023.13;5018097;28;1164;-48
2022/09/24 02:04:15;;;;;;;;;;;;;;;15.23;60.93;101018.19;5000652;28;1207;-45
2022/09/24 02:07:00;;;;;;;;;;;;;;;18.06;56.43;101029.69;5017986;28;1215;-48
2022/09/24 02:09:29;;;;;;;;;;;;;;;17.41;56.32;101026.63;5001030;28;1139;-47
2022/09/24 02:11:54;;;;;;;;;;;;;;;16.11;60.14;101027.16;5004703;28;1910;-48
2022/09/24 02:14:20;;;;;;;;;;;;;;;18.98;53.79;101041.50;5018487;28;1108;-44
2022/09/24 02:16:49;;;;;;;;;;;;;;;15.01;61.41;101025.59;5000293;28;1156;-49
2022/09/24 02:19:18;;;;;;;;;;;;;;;18.45;55.25;101039.19;5018133;28;926;-50
2022/09/24 02:21:44;;;;;;;;;;;;;;;17.99;55.22;101040.13;5000390;28;1398;-48
2022/09/24 02:24:12;;;;;;;;;;;;;;;15.78;59.15;101039.22;5000618;28;1843;-48
2022/09/24 02:26:37;;;;;;;;;;;;;;;18.32;55.56;101028.78;5000437;28;1204;-48
2022/09/24 02:29:04;;;;;;;;;;;;;;;15.20;61.39;101039.78;5017490;28;1212;-46
2022/09/24 02:31:30;;;;;;;;;;;;;;;17.24;58.58;101035.94;5017758;28;1184;-46
2022/09/24 02:39:59;;;;;;;;;;;;;;;18.97;53.17;101045.38;5017579;28;1199;-45
2022/09/24 02:42:25;;;;;;;;;;;;;;;14.90;62.24;101038.38;4999935;28;1136;-46
2022/09/24 02:44:51;;;;;;;;;;;;;;;18.32;55.62;101039.81;5017303;28;1112;-46
2022/09/24 02:47:17;;;;;;;;;;;;;;;16.04;59.49;101048.53;5017451;28;1183;-45
2022/09/24 02:49:43;;;;;;;;;;;;;;;16.78;59.66;101046.75;5017214;28;1163;-49
2022/09/24 02:52:09;;;;;;;;;;;;;;;19.11;53.06;101040.06;5017011;28;1905;-45
2022/09/24 02:54:34;;;;;;;;;;;;;;;14.85;64.41;101049.25;5016490;28;1821;-46
2022/09/24 02:57:00;;;;;;;;;;;;;;;18.57;54.92;101041.66;5017020;28;1183;-47
2022/09/24 02:59:25;;;;;;;;;;;;;;;16.87;57.22;101049.78;5017180;28;1124;-49
2022/09/24 03:01:51;;;;;;;;;;;;;;;15.77;57.96;101048.53;5017264;28;1218;-46
2022/09/24 03:04:16;;;;;;;;;;;;;;;18.36;55.24;101047.22;5017286;28;1159;-45
2022/09/24 03:06:42;;;;;;;;;;;;;;;17.67;53.82;101063.22;5016622;28;1081;-47
2022/09/24 03:09:07;;;;;;;;;;;;;;;17.64;53.49;101063.75;4999970;28;1196;-49
2022/09/24 03:11:34;;;;;;;;;;;;;;;17.49;55.57;101066.47;5016981;28;1226;-47
2022/09/24 03:13:59;;;;;;;;;;;;;;;16.04;61.83;101067.72;5017053;28;1913;-48
2022/09/24 03:16:25;;;;;;;;;;;;;;;19.08;53.46;101068.19;5016311;28;1211;-47
2022/09/24 03:18:50;;;;;;;;;;;;;;;15.33;60.66;101060.47;5016753;28;900;-48
2022/09/24 03:21:17;;;;;;;;;;;;;;;16.63;57.29;101063.16;5016857;28;1159;-49
2022/09/24 03:23:42;;;;;;;;;;;;;;;18.27;54.64;101069.00;5005452;28;2309;-45
2022/09/24 03:26:08;;;;;;;;;;;;;;;17.41;53.57;101065.91;5017023;28;1133;-45
2022/09/24 03:28:33;;;;;;;;;;;;;;;17.89;53.93;101068.44;5016560;28;1451;-48
2022/09/24 03:30:59;;;;;;;;;;;;;;;17.90;53.80;101072.03;5016104;28;904;-46
2022/09/24 03:33:34;;;;;;;;;;;;;;;17.53;51.60;101070.31;5016437;28;1914;-46
2022/09/24 03:36:01;;;;;;;;;;;;;;;18.47;53.21;101083.81;5016089;28;1112;-46
2022/09/24 03:38:26;;;;;;;;;;;;;;;15.00;60.28;101082.31;5012940;28;1301;-46
2022/09/24 03:40:52;;;;;;;;;;;;;;;17.49;56.52;101080.22;5016362;28;1231;-46
2022/09/24 03:43:17;;;;;;;;;;;;;;;18.06;54.59;101075.59;4999038;28;1232;-49
2022/09/24 03:45:43;;;;;;;;;;;;;;;15.51;62.43;101084.75;5016409;28;1119;-48
2022/09/24 03:48:08;;;;;;;;;;;;;;;18.78;54.06;101092.00;5015493;28;1143;-44
2022/09/24 03:50:37;;;;;;;;;;;;;;;15.52;60.42;101097.38;5016042;28;1247;-49
2022/09/24 03:53:02;;;;;;;;;;;;;;;17.10;58.53;101095.25;5015562;28;1922;-48
2022/09/24 03:55:28;;;;;;;;;;;;;;;18.71;53.63;101092.28;5016101;28;1856;-48
2022/09/24 03:57:53;;;;;;;;;;;;;;;15.00;63.18;101085.03;5016405;28;1104;-43
2022/09/24 04:00:19;;;;;;;;;;;;;;;18.52;55.14;101094.00;5016423;28;1187;-45
2022/09/24 04:02:45;;;;;;;;;;;;;;;15.94;59.50;101092.34;5016672;28;1100;-47
2022/09/24 04:05:10;;;;;;;;;;;;;;;16.07;56.16;101095.47;5015884;28;1227;-47
2022/09/24 04:07:35;;;;;;;;;;;;;;;16.69;51.90;101093.13;5016207;28;907;-43
2022/09/24 04:10:01;;;;;;;;;;;;;;;16.76;50.24;101103.88;5016543;28;1222;-44
2022/09/24 04:12:28;;;;;;;;;;;;;;;17.56;52.71;101106.38;5016095;28;1902;-45
2022/09/24 04:14:53;;;;;;;;;;;;;;;17.08;51.70;101106.50;5015612;28;1080;-43
2022/09/24 04:17:19;;;;;;;;;;;;;;;17.46;52.38;101117.34;5016283;28;1175;-47
2022/09/24 04:19:44;;;;;;;;;;;;;;;17.38;52.55;101126.94;5015675;28;938;-46
2022/09/24 04:22:10;;;;;;;;;;;;;;;17.12;50.70;101133.44;5015984;28;1187;-45
2022/09/24 04:24:35;;;;;;;;;;;;;;;17.39;51.27;101131.34;5008546;28;2397;-48
2022/09/24 04:27:00;;;;;;;;;;;;;;;17.38;51.32;101137.94;5014367;28;1184;-44
2022/09/24 04:29:26;;;;;;;;;;;;;;;17.17;51.22;101136.22;5016240;28;1226;-45
2022/09/24 04:31:51;;;;;;;;;;;;;;;18.40;52.04;101147.44;5015601;28;1977;-44
2022/09/24 04:34:17;;;;;;;;;;;;;;;17.56;51.65;101152.28;5016078;28;1093;-43
2022/09/24 04:36:42;;;;;;;;;;;;;;;17.29;50.23;101147.78;5015592;28;1104;-47
2022/09/24 04:39:08;;;;;;;;;;;;;;;17.11;48.95;101143.63;5016362;28;1171;-47
2022/09/24 04:41:33;;;;;;;;;;;;;;;17.11;49.24;101154.63;5016422;28;1167;-44
2022/09/24 04:43:59;;;;;;;;;;;;;;;17.72;50.82;101156.72;5015516;28;1148;-45
2022/09/24 04:46:24;;;;;;;;;;;;;;;17.31;49.84;101159.34;5015807;28;1092;-44
2022/09/24 04:48:50;;;;;;;;;;;;;;;17.03;48.90;101163.38;5015920;28;1100;-44
2022/09/24 04:51:18;;;;;;;;;;;;;;;18.04;50.80;101163.13;5015628;28;1188;-42
2022/09/24 04:53:44;;;;;;;;;;;;;;;17.36;50.49;101167.63;5015641;28;1901;-44
2022/09/24 04:56:10;;;;;;;;;;;;;;;17.07;49.45;101159.81;5014832;28;1088;-48
2022/09/24 04:58:36;;;;;;;;;;;;;;;17.98;50.12;101166.97;5010671;28;1445;-45
2022/09/24 05:01:02;;;;;;;;;;;;;;;17.35;49.99;101170.63;5014459;28;1105;-45
2022/09/24 05:03:28;;;;;;;;;;;;;;;17.15;48.98;101172.19;5014396;28;1574;-48
2022/09/24 05:05:54;;;;;;;;;;;;;;;16.95;48.38;101161.94;5019108;28;1160;-47
2022/09/24 05:08:19;;;;;;;;;;;;;;;17.70;49.25;101164.41;5019350;28;1127;-43
2022/09/24 05:10:45;;;;;;;;;;;;;;;17.35;50.05;101165.97;5019415;28;1096;-43
2022/09/24 05:13:10;;;;;;;;;;;;;;;18.35;50.33;101161.19;5019120;28;1906;-49
2022/09/24 05:15:36;;;;;;;;;;;;;;;16.22;57.37;101149.63;5019395;28;1164;-45
2022/09/24 05:18:01;;;;;;;;;;;;;;;16.47;54.08;101158.31;5015779;28;1214;-48
2022/09/24 05:20:26;;;;;;;;;;;;;;;17.53;52.65;101155.56;5017973;28;1144;-46
2022/09/24 05:22:52;;;;;;;;;;;;;;;17.48;52.34;101159.13;5018977;28;1227;-46
2022/09/24 05:25:18;;;;;;;;;;;;;;;17.18;50.78;101157.09;5005652;28;2214;-47
2022/09/24 05:27:44;;;;;;;;;;;;;;;18.04;51.51;101166.69;5001278;28;1541;-45
2022/09/24 05:30:09;;;;;;;;;;;;;;;17.37;51.06;101150.03;5014370;28;1037;-44
2022/09/24 05:32:35;;;;;;;;;;;;;;;17.16;49.76;101170.28;5016854;28;1914;-40
2022/09/24 05:35:01;;;;;;;;;;;;;;;17.34;49.96;101164.31;5018645;28;1112;-42
2022/09/24 05:37:26;;;;;;;;;;;;;;;17.75;51.06;101169.09;5016532;28;1226;-45
2022/09/24 05:39:53;;;;;;;;;;;;;;;18.16;50.10;101168.34;5015200;28;1100;-42
2022/09/24 05:42:19;;;;;;;;;;;;;;;17.88;50.80;101179.59;5018733;28;1175;-45
2022/09/24 05:44:44;;;;;;;;;;;;;;;17.48;51.92;101180.31;5016957;28;986;-43
2022/09/24 05:47:10;;;;;;;;;;;;;;;17.24;52.66;101175.28;5018287;28;1171;-46
2022/09/24 05:49:35;;;;;;;;;;;;;;;17.11;52.89;101176.59;5018754;28;1124;-46
2022/09/24 05:52:01;;;;;;;;;;;;;;;16.98;53.45;101183.38;5018132;28;1909;-46
2022/09/24 05:54:26;;;;;;;;;;;;;;;16.79;53.62;101184.88;5018473;28;2340;-46
2022/09/24 05:56:52;;;;;;;;;;;;;;;16.73;53.72;101190.34;5017929;28;904;-47
2022/09/24 05:59:17;;;;;;;;;;;;;;;16.58;54.16;101195.75;5018069;28;1089;-48
2022/09/24 06:01:43;;;;;;;;;;;;;;;16.54;54.38;101195.44;5018214;28;1207;-48
2022/09/24 06:04:10;;;;;;;;;;;;;;;16.50;54.43;101194.28;5018278;28;1169;-48
2022/09/24 06:06:35;;;;;;;;;;;;;;;16.40;54.55;101199.72;5018122;28;970;-46
2022/09/24 06:09:01;;;;;;;;;;;;;;;16.30;54.87;101200.47;5017686;28;1029;-48
2022/09/24 06:11:27;;;;;;;;;;;;;;;16.23;54.89;101206.16;5015945;28;1279;-45
2022/09/24 06:13:52;;;;;;;;;;;;;;;16.17;54.87;101203.63;5018074;28;1913;-45
2022/09/24 06:16:18;;;;;;;;;;;;;;;16.14;55.10;101217.84;5018213;28;1211;-45
2022/09/24 06:18:43;;;;;;;;;;;;;;;16.06;55.21;101210.91;5017897;28;1215;-44
2022/09/24 06:21:10;;;;;;;;;;;;;;;16.75;54.17;101221.09;5018037;28;889;-44
2022/09/24 06:23:35;;;;;;;;;;;;;;;17.15;53.40;101215.34;5006023;28;1249;-43
2022/09/24 06:26:01;;;;;;;;;;;;;;;16.57;54.68;101211.38;5017106;28;2527;-45
2022/09/24 06:28:26;;;;;;;;;;;;;;;16.40;55.21;101224.41;5016647;28;1266;-44
2022/09/24 06:30:52;;;;;;;;;;;;;;;16.25;55.13;101220.44;5000232;28;1164;-45
2022/09/24 06:33:19;;;;;;;;;;;;;;;16.17;55.43;101220.06;5017483;28;1906;-43
2022/09/24 06:35:44;;;;;;;;;;;;;;;16.47;54.81;101232.44;5006929;28;1183;-49
2022/09/24 06:38:10;;;;;;;;;;;;;;;17.34;52.78;101221.22;5015743;28;1120;-45
2022/09/24 06:40:35;;;;;;;;;;;;;;;16.60;54.64;101210.00;5011831;28;1237;-49
2022/09/24 06:43:01;;;;;;;;;;;;;;;16.41;54.99;101229.63;5015979;28;1295;-45
2022/09/24 06:45:27;;;;;;;;;;;;;;;16.25;55.41;101220.44;5018174;28;1073;-48
2022/09/24 06:47:55;;;;;;;;;;;;;;;16.16;55.37;101215.66;5017852;28;1152;-47
2022/09/24 06:50:21;;;;;;;;;;;;;;;17.58;52.42;101221.59;5017129;28;1168;-46
2022/09/24 06:52:47;;;;;;;;;;;;;;;16.85;54.21;101222.28;5017122;28;1909;-45
2022/09/24 06:55:12;;;;;;;;;;;;;;;16.53;55.14;101234.13;4995908;28;2545;-49
2022/09/24 06:57:38;;;;;;;;;;;;;;;16.40;55.01;101232.66;5017572;28;1274;-49
2022/09/24 07:00:03;;;;;;;;;;;;;;;16.21;55.44;101224.78;5017206;28;1076;-49
2022/09/24 07:02:29;;;;;;;;;;;;;;;16.10;55.59;101233.19;5015858;28;1156;-46
2022/09/24 07:04:55;;;;;;;;;;;;;;;16.32;55.33;101231.19;5013435;28;1106;-50
2022/09/24 07:07:31;;;;;;;;;;;;;;;17.61;52.18;101229.28;5016864;28;1056;-46
2022/09/24 07:09:57;;;;;;;;;;;;;;;16.71;54.45;101233.72;5016851;28;1163;-45
2022/09/24 07:12:23;;;;;;;;;;;;;;;16.44;55.13;101236.53;5016832;28;1902;-47
2022/09/24 07:14:48;;;;;;;;;;;;;;;16.31;55.31;101235.03;5017348;28;1092;-45
2022/09/24 07:17:14;;;;;;;;;;;;;;;16.21;55.62;101234.94;5017013;28;1228;-46
2022/09/24 07:19:40;;;;;;;;;;;;;;;16.69;54.74;101230.41;5016659;28;1096;-47
2022/09/24 07:22:05;;;;;;;;;;;;;;;17.41;52.80;101233.59;5016671;28;1147;-49
2022/09/24 07:24:31;;;;;;;;;;;;;;;16.72;54.33;101232.63;5009786;28;1853;-47
2022/09/24 07:26:56;;;;;;;;;;;;;;;16.47;54.93;101232.44;5012358;28;1105;-47
2022/09/24 07:29:22;;;;;;;;;;;;;;;16.31;55.54;101235.03;5016741;28;1205;-44
2022/09/24 07:31:47;;;;;;;;;;;;;;;16.20;55.32;101227.78;5015041;28;1077;-49
2022/09/24 07:34:13;;;;;;;;;;;;;;;17.05;53.90;101227.91;5016497;28;1906;-45
2022/09/24 07:36:39;;;;;;;;;;;;;;;17.07;53.55;101219.44;5013209;28;1159;-45
2022/09/24 07:39:04;;;;;;;;;;;;;;;16.58;54.87;101223.19;5011966;28;1322;-48
2022/09/24 07:41:30;;;;;;;;;;;;;;;16.38;55.26;101221.94;5009607;28;1069;-45
2022/09/24 07:43:55;;;;;;;;;;;;;;;16.22;55.37;101223.69;5014346;28;1072;-45
2022/09/24 07:46:21;;;;;;;;;;;;;;;16.14;55.56;101223.34;5009939;28;1108;-50
2022/09/24 07:48:49;;;;;;;;;;;;;;;17.50;52.86;101227.59;5016299;28;1239;-47
2022/09/24 07:51:15;;;;;;;;;;;;;;;16.90;54.15;101223.19;5016158;28;966;-45
2022/09/24 07:53:40;;;;;;;;;;;;;;;16.54;54.91;101230.28;5016577;28;1976;-47
2022/09/24 07:56:06;;;;;;;;;;;;;;;16.33;55.18;101232.84;5012490;28;2601;-48
2022/09/24 07:58:31;;;;;;;;;;;;;;;16.23;55.23;101225.38;5016272;28;1191;-47
2022/09/24 08:00:57;;;;;;;;;;;;;;;17.17;53.41;101229.66;5015998;28;1085;-47
2022/09/24 08:03:23;;;;;;;;;;;;;;;17.17;53.13;101235.16;5016707;28;1214;-46
2022/09/24 08:05:48;;;;;;;;;;;;;;;16.64;54.78;101224.88;5016797;28;1272;-45
2022/09/24 08:08:14;;;;;;;;;;;;;;;16.47;55.03;101232.44;5015673;28;1120;-47
2022/09/24 08:10:40;;;;;;;;;;;;;;;16.34;55.05;101229.03;5012988;28;1124;-44
2022/09/24 08:13:06;;;;;;;;;;;;;;;16.33;55.25;101234.78;5016416;28;1910;-47
2022/09/24 08:15:31;;;;;;;;;;;;;;;17.77;51.61;101227.44;5016276;28;1128;-43
2022/09/24 08:18:03;;;;;;;;;;;;;;;16.91;54.08;101233.09;5016259;28;1131;-48
2022/09/24 08:20:29;;;;;;;;;;;;;;;16.58;54.76;101217.69;5016004;28;1108;-46
2022/09/24 08:22:59;;;;;;;;;;;;;;;16.40;55.03;101233.47;5008179;28;1163;-47
2022/09/24 08:25:24;;;;;;;;;;;;;;;16.24;55.31;101224.28;5015599;28;2678;-47
2022/09/24 08:27:50;;;;;;;;;;;;;;;16.19;55.38;101215.19;5015538;28;1180;-44
2022/09/24 08:30:15;;;;;;;;;;;;;;;17.48;52.60;101229.81;5014807;28;1191;-45
2022/09/24 08:32:45;;;;;;;;;;;;;;;17.01;53.63;101215.84;5009736;28;1914;-45
2022/09/24 08:35:10;;;;;;;;;;;;;;;16.56;54.67;101208.88;5017783;28;1263;-45
2022/09/24 08:37:36;;;;;;;;;;;;;;;16.41;54.97;101213.16;5020049;28;1136;-45
2022/09/24 08:40:02;;;;;;;;;;;;;;;16.27;55.36;101211.13;5020365;28;1175;-47
2022/09/24 08:42:27;;;;;;;;;;;;;;;16.18;55.44;101200.59;5012821;28;1231;-48
2022/09/24 08:47:37;;;;;;;;;;;;;;;16.91;53.78;101213.00;5004274;28;1183;-43
2022/09/24 08:50:08;;;;;;;;;;;;;;;16.52;54.85;101203.09;5019335;28;1131;-48
2022/09/24 08:52:42;;;;;;;;;;;;;;;16.32;55.11;101202.94;5019661;28;1914;-47
2022/09/24 08:55:11;;;;;;;;;;;;;;;16.22;55.47;101206.41;5019547;28;2480;-45
2022/09/24 08:57:39;;;;;;;;;;;;;;;17.47;52.69;101206.97;5019347;28;1152;-48
2022/09/24 09:00:06;;;;;;;;;;;;;;;17.08;53.40;101208.19;5019319;28;1127;-46
2022/09/24 09:02:31;;;;;;;;;;;;;;;16.61;54.47;101200.69;5019658;28;1115;-43
2022/09/24 09:05:00;;;;;;;;;;;;;;;16.43;54.78;101193.69;5018814;28;1135;-47
2022/09/24 09:07:28;;;;;;;;;;;;;;;16.46;55.22;101195.09;5019331;28;1115;-48
2022/09/24 09:10:10;;;;;;;;;;;;;;;17.51;52.30;101205.31;5001517;28;1108;-45
2022/09/24 09:12:42;;;;;;;;;;;;;;;16.74;54.47;101200.22;5018966;28;1910;-47
2022/09/24 09:15:12;;;;;;;;;;;;;;;16.50;54.82;101188.81;5001667;28;1124;-45
2022/09/24 09:17:51;;;;;;;;;;;;;;;16.40;54.98;101195.03;5001853;28;1136;-49
2022/09/24 09:20:20;;;;;;;;;;;;;;;16.27;55.20;101197.41;5001016;28;1097;-44
2022/09/24 09:22:46;;;;;;;;;;;;;;;16.36;55.33;101187.59;5001178;28;1204;-49
2022/09/24 09:25:15;;;;;;;;;;;;;;;17.63;52.06;101191.34;5010117;28;1918;-43
2022/09/24 09:27:40;;;;;;;;;;;;;;;16.80;54.08;101194.78;5003032;28;1240;-46
2022/09/24 09:30:06;;;;;;;;;;;;;;;16.49;55.20;101191.81;5018722;28;1360;-46
2022/09/24 09:32:44;;;;;;;;;;;;;;;16.31;55.26;101182.88;5018504;28;1910;-46
2022/09/24 09:35:12;;;;;;;;;;;;;;;16.24;55.52;101185.88;5019124;28;1068;-43
2022/09/24 09:37:53;;;;;;;;;;;;;;;16.46;55.10;101181.38;5016788;28;1227;-45
2022/09/24 09:40:23;;;;;;;;;;;;;;;17.62;52.08;101184.19;5006555;28;1088;-45
2022/09/24 09:42:48;;;;;;;;;;;;;;;16.79;54.55;101184.88;5012246;28;1104;-47
2022/09/24 09:45:17;;;;;;;;;;;;;;;16.56;54.88;101184.19;5014863;28;1291;-44
2022/09/24 09:47:44;;;;;;;;;;;;;;;16.38;55.41;101175.28;5010327;28;1023;-47
2022/09/24 09:50:22;;;;;;;;;;;;;;;16.30;55.27;101163.94;5016925;28;1212;-44
2022/09/24 09:52:48;;;;;;;;;;;;;;;16.78;54.60;101178.56;5018930;28;1983;-44
2022/09/24 09:55:39;;;;;;;;;;;;;;;17.39;52.62;101186.34;5011733;28;2286;-46
2022/09/24 09:58:14;;;;;;;;;;;;;;;16.69;54.71;101169.16;5015042;28;1216;-47
2022/09/24 10:00:40;;;;;;;;;;;;;;;16.45;55.19;101174.22;5017816;28;1344;-46
2022/09/24 10:03:05;;;;;;;;;;;;;;;16.34;55.21;101173.31;5017563;28;1387;-42
2022/09/24 10:05:31;;;;;;;;;;;;;;;16.24;55.58;101165.81;5012717;28;1477;-47
2022/09/24 10:07:56;;;;;;;;;;;;;;;17.64;52.37;101173.75;5003248;28;1042;-44
2022/09/24 10:10:23;;;;;;;;;;;;;;;17.01;53.63;101171.88;5014172;28;1090;-43
2022/09/24 10:12:51;;;;;;;;;;;;;;;16.65;54.70;101171.63;5012410;28;1913;-49
2022/09/24 10:15:17;;;;;;;;;;;;;;;16.46;55.14;101167.66;5018074;28;1115;-48
2022/09/24 10:17:42;;;;;;;;;;;;;;;16.35;55.01;101163.97;5017968;28;1191;-49
2022/09/24 10:20:16;;;;;;;;;;;;;;;16.51;55.21;101165.75;5014594;28;1136;-44
2022/09/24 10:22:51;;;;;;;;;;;;;;;17.53;52.34;101166.56;5009876;28;1073;-47
2022/09/24 10:25:18;;;;;;;;;;;;;;;16.76;54.25;101173.34;5009303;28;1807;-48
2022/09/24 10:27:43;;;;;;;;;;;;;;;16.53;54.92;101170.97;5010820;28;1367;-47
2022/09/24 10:30:33;;;;;;;;;;;;;;;16.41;54.97;101171.16;5012137;28;1217;-49
2022/09/24 10:33:02;;;;;;;;;;;;;;;16.29;55.07;101170.53;5015033;28;1976;-49
2022/09/24 10:35:29;;;;;;;;;;;;;;;16.62;54.75;101174.06;4997899;28;1231;-44
2022/09/24 10:37:55;;;;;;;;;;;;;;;17.46;52.32;101177.84;4997810;28;1310;-45
2022/09/24 10:40:27;;;;;;;;;;;;;;;16.72;54.40;101169.47;5011217;28;1243;-46
2022/09/24 10:42:59;;;;;;;;;;;;;;;16.51;54.97;101171.25;5003583;28;1243;-49
2022/09/24 10:45:28;;;;;;;;;;;;;;;16.38;55.34;101169.78;5012918;28;1579;-45
2022/09/24 10:47:59;;;;;;;;;;;;;;;16.25;55.52;101159.25;5011333;28;1105;-49
2022/09/24 10:50:26;;;;;;;;;;;;;;;16.41;55.15;101166.50;5017708;28;1099;-47
2022/09/24 10:53:18;;;;;;;;;;;;;;;17.51;52.53;101171.53;5009995;28;1982;-45
2022/09/24 10:55:54;;;;;;;;;;;;;;;16.69;54.57;101169.16;5014281;28;2323;-47
2022/09/24 10:58:37;;;;;;;;;;;;;;;16.43;54.98;101160.75;5017223;28;1132;-47
2022/09/24 11:01:21;;;;;;;;;;;;;;;16.32;55.09;101157.09;5017059;28;1104;-49
2022/09/24 11:03:52;;;;;;;;;;;;;;;16.21;55.33;101152.63;5017289;28;1096;-45
2022/09/24 11:06:17;;;;;;;;;;;;;;;16.61;54.70;101162.25;5016115;28;1204;-47
2022/09/24 11:08:43;;;;;;;;;;;;;;;17.49;52.32;101154.44;5016878;28;1175;-48
2022/09/24 11:11:27;;;;;;;;;;;;;;;16.73;54.32;101165.63;5016947;28;983;-44
2022/09/24 11:13:54;;;;;;;;;;;;;;;16.46;54.87;101151.16;5017017;28;1921;-44
2022/09/24 11:16:32;;;;;;;;;;;;;;;16.28;55.32;101157.91;5016854;28;1132;-47
2022/09/24 11:18:59;;;;;;;;;;;;;;;16.20;55.41;101145.47;5016489;28;1159;-44
2022/09/24 11:21:28;;;;;;;;;;;;;;;16.52;54.94;101144.63;5015216;28;1191;-46
2022/09/24 11:23:59;;;;;;;;;;;;;;;17.44;52.46;101147.84;5015268;28;2307;-47
2022/09/24 11:26:32;;;;;;;;;;;;;;;16.71;54.62;101145.03;5017094;28;1174;-46
2022/09/24 11:28:58;;;;;;;;;;;;;;;16.46;55.03;101134.69;5015457;28;1245;-48
2022/09/24 11:31:23;;;;;;;;;;;;;;;16.32;55.38;101137.06;5015702;28;1257;-45
2022/09/24 11:33:58;;;;;;;;;;;;;;;16.24;55.33;101135.63;5016522;28;1914;-45
2022/09/24 11:36:30;;;;;;;;;;;;;;;17.57;52.21;101138.28;5016820;28;1108;-45
2022/09/24 11:39:07;;;;;;;;;;;;;;;16.76;54.30;101137.63;5016440;28;1136;-46
2022/09/24 11:41:56;;;;;;;;;;;;;;;16.49;54.82;101131.44;5003350;28;1104;-48
2022/09/24 11:44:37;;;;;;;;;;;;;;;16.30;55.27;101129.09;5017075;28;1115;-49
2022/09/24 11:47:26;;;;;;;;;;;;;;;16.22;55.35;101124.91;5016106;28;977;-45
2022/09/24 11:49:52;;;;;;;;;;;;;;;17.32;53.08;101127.19;5014808;28;1198;-49
2022/09/24 11:52:26;;;;;;;;;;;;;;;17.29;52.94;101128.53;5009129;28;1925;-49
2022/09/24 11:54:58;;;;;;;;;;;;;;;16.68;54.63;101123.59;5016098;28;2237;-46
2022/09/24 11:57:24;;;;;;;;;;;;;;;16.51;54.97;101112.75;5007013;28;1155;-43
2022/09/24 11:59:52;;;;;;;;;;;;;;;16.38;55.20;101122.28;5016300;28;1138;-50
2022/09/24 12:02:24;;;;;;;;;;;;;;;16.24;55.23;101122.75;5005529;28;1578;-49
2022/09/24 12:05:04;;;;;;;;;;;;;;;16.15;55.58;101118.00;5008064;28;1120;-47
2022/09/24 12:07:48;;;;;;;;;;;;;;;17.43;52.70;101124.22;5013598;28;1163;-48
2022/09/24 12:10:14;;;;;;;;;;;;;;;17.05;53.65;101128.19;5018098;28;1167;-49
2022/09/24 12:12:41;;;;;;;;;;;;;;;16.59;54.67;101126.84;5020879;28;1906;-48
2022/09/24 12:15:18;;;;;;;;;;;;;;;16.43;55.12;101127.81;5020351;28;1124;-48
2022/09/24 12:18:02;;;;;;;;;;;;;;;16.32;55.23;101129.66;5020662;28;1144;-46
2022/09/24 12:20:28;;;;;;;;;;;;;;;16.80;54.22;101123.38;5020470;28;1147;-45
2022/09/24 12:22:58;;;;;;;;;;;;;;;17.45;52.43;101124.75;5019602;28;1214;-47
2022/09/24 12:25:25;;;;;;;;;;;;;;;16.73;54.22;101126.34;5019203;28;2667;-47
2022/09/24 12:27:51;;;;;;;;;;;;;;;16.51;54.79;101123.75;5020098;28;1187;-48
2022/09/24 12:33:02;;;;;;;;;;;;;;;16.28;55.29;101119.47;5020058;28;1918;-51
2022/09/24 12:35:35;;;;;;;;;;;;;;;16.20;55.20;101118.03;5000414;28;1286;-44
2022/09/24 12:38:12;;;;;;;;;;;;;;;17.64;52.23;101129.75;5019956;28;1080;-45
2022/09/24 12:40:59;;;;;;;;;;;;;;;16.89;54.01;101130.88;5002975;28;1100;-50
2022/09/24 12:43:24;;;;;;;;;;;;;;;16.55;54.74;101125.72;5019609;28;1140;-47
2022/09/24 12:46:03;;;;;;;;;;;;;;;16.39;55.10;101127.50;5019630;28;1171;-48
2022/09/24 12:48:29;;;;;;;;;;;;;;;16.26;55.27;101117.00;5002276;28;1131;-48
2022/09/24 12:50:58;;;;;;;;;;;;;;;16.41;55.25;101136.31;5001831;28;1227;-45
2022/09/24 12:53:26;;;;;;;;;;;;;;;17.61;52.13;101135.78;5002230;28;1915;-50
2022/09/24 12:55:57;;;;;;;;;;;;;;;16.80;53.96;101129.69;4998728;28;2500;-50
2022/09/24 12:58:25;;;;;;;;;;;;;;;16.54;54.83;101131.47;5002289;28;1186;-45
2022/09/24 13:00:52;;;;;;;;;;;;;;;16.32;55.18;101121.41;5018802;28;1080;-48
2022/09/24 13:03:37;;;;;;;;;;;;;;;16.30;55.18;101128.25;5002109;28;1156;-49
2022/09/24 13:06:03;;;;;;;;;;;;;;;16.16;55.15;101123.25;5019479;28;1398;-48